sensor_id;sensor_type;location;lat;lon;timestamp;P1;durP1;ratioP1;P2;durP2;ratioP2
52724;SDS011;38621;52.830;6.914;2023-06-14T00:00:40;4.50;;;1.83;;
52724;SDS011;38621;52.830;6.914;2023-06-14T00:03:07;4.28;;;1.50;;
52724;SDS011;38621;52.830;6.914;2023-06-14T00:05:37;2.75;;;1.40;;
52724;SDS011;38621;52.830;6.914;2023-06-14T00:08:08;4.40;;;1.80;;
52724;SDS011;38621;52.830;6.914;2023-06-14T00:10:35;3.97;;;1.50;;
52724;SDS011;38621;52.830;6.914;2023-06-14T00:13:02;3.15;;;1.40;;
52724;SDS011;38621;52.830;6.914;2023-06-14T00:15:29;2.20;;;1.45;;
52724;SDS011;38621;52.830;6.914;2023-06-14T00:17:56;3.05;;;1.50;;
52724;SDS011;38621;52.830;6.914;2023-06-14T00:20:29;3.65;;;1.55;;
52724;SDS011;38621;52.830;6.914;2023-06-14T00:22:57;3.10;;;1.63;;
52724;SDS011;38621;52.830;6.914;2023-06-14T00:25:23;6.28;;;1.50;;
52724;SDS011;38621;52.830;6.914;2023-06-14T00:27:56;5.63;;;1.60;;
52724;SDS011;38621;52.830;6.914;2023-06-14T00:30:22;3.00;;;1.60;;
52724;SDS011;38621;52.830;6.914;2023-06-14T00:32:48;2.92;;;1.50;;
52724;SDS011;38621;52.830;6.914;2023-06-14T00:35:15;3.40;;;1.35;;
52724;SDS011;38621;52.830;6.914;2023-06-14T00:37:40;2.45;;;1.55;;
52724;SDS011;38621;52.830;6.914;2023-06-14T00:40:06;3.22;;;1.50;;
52724;SDS011;38621;52.830;6.914;2023-06-14T00:42:32;5.05;;;1.50;;
52724;SDS011;38621;52.830;6.914;2023-06-14T00:44:59;3.72;;;1.60;;
52724;SDS011;38621;52.830;6.914;2023-06-14T00:47:25;2.70;;;1.70;;
52724;SDS011;38621;52.830;6.914;2023-06-14T00:49:52;5.32;;;1.67;;
52724;SDS011;38621;52.830;6.914;2023-06-14T00:52:18;3.22;;;1.52;;
52724;SDS011;38621;52.830;6.914;2023-06-14T00:54:44;3.30;;;1.50;;
52724;SDS011;38621;52.830;6.914;2023-06-14T00:57:10;3.38;;;1.40;;
52724;SDS011;38621;52.830;6.914;2023-06-14T00:59:40;3.22;;;1.27;;
52724;SDS011;38621;52.830;6.914;2023-06-14T01:02:07;2.05;;;1.30;;
52724;SDS011;38621;52.830;6.914;2023-06-14T01:04:33;2.88;;;1.33;;
52724;SDS011;38621;52.830;6.914;2023-06-14T01:07:02;4.10;;;1.40;;
52724;SDS011;38621;52.830;6.914;2023-06-14T01:09:45;4.70;;;1.60;;
52724;SDS011;38621;52.830;6.914;2023-06-14T01:13:18;3.20;;;1.60;;
52724;SDS011;38621;52.830;6.914;2023-06-14T01:15:23;2.75;;;1.30;;
52724;SDS011;38621;52.830;6.914;2023-06-14T01:17:50;4.85;;;1.60;;
52724;SDS011;38621;52.830;6.914;2023-06-14T01:20:16;4.35;;;1.50;;
52724;SDS011;38621;52.830;6.914;2023-06-14T01:25:18;2.55;;;1.27;;
52724;SDS011;38621;52.830;6.914;2023-06-14T01:28:00;3.33;;;1.67;;
52724;SDS011;38621;52.830;6.914;2023-06-14T01:30:28;3.08;;;1.63;;
52724;SDS011;38621;52.830;6.914;2023-06-14T01:32:55;4.05;;;1.48;;
52724;SDS011;38621;52.830;6.914;2023-06-14T01:35:23;2.40;;;1.40;;
52724;SDS011;38621;52.830;6.914;2023-06-14T01:37:49;4.65;;;1.70;;
52724;SDS011;38621;52.830;6.914;2023-06-14T01:40:17;3.67;;;1.50;;
52724;SDS011;38621;52.830;6.914;2023-06-14T01:42:46;3.25;;;1.67;;
52724;SDS011;38621;52.830;6.914;2023-06-14T01:45:14;2.75;;;1.52;;
52724;SDS011;38621;52.830;6.914;2023-06-14T01:47:40;2.22;;;1.33;;
52724;SDS011;38621;52.830;6.914;2023-06-14T01:50:07;3.42;;;1.38;;
52724;SDS011;38621;52.830;6.914;2023-06-14T01:52:33;3.00;;;1.50;;
52724;SDS011;38621;52.830;6.914;2023-06-14T01:54:58;4.35;;;1.70;;
52724;SDS011;38621;52.830;6.914;2023-06-14T01:57:27;4.88;;;1.60;;
52724;SDS011;38621;52.830;6.914;2023-06-14T01:59:53;2.35;;;1.50;;
52724;SDS011;38621;52.830;6.914;2023-06-14T02:02:18;4.10;;;1.88;;
52724;SDS011;38621;52.830;6.914;2023-06-14T02:04:44;3.67;;;1.50;;
52724;SDS011;38621;52.830;6.914;2023-06-14T02:07:12;3.78;;;1.63;;
52724;SDS011;38621;52.830;6.914;2023-06-14T02:09:38;3.45;;;1.60;;
52724;SDS011;38621;52.830;6.914;2023-06-14T02:12:05;6.03;;;1.80;;
52724;SDS011;38621;52.830;6.914;2023-06-14T02:14:31;2.85;;;1.58;;
52724;SDS011;38621;52.830;6.914;2023-06-14T02:16:56;2.40;;;1.58;;
52724;SDS011;38621;52.830;6.914;2023-06-14T02:19:22;2.60;;;1.70;;
52724;SDS011;38621;52.830;6.914;2023-06-14T02:21:48;3.97;;;1.55;;
52724;SDS011;38621;52.830;6.914;2023-06-14T02:24:13;2.85;;;1.65;;
52724;SDS011;38621;52.830;6.914;2023-06-14T02:26:39;6.05;;;1.60;;
52724;SDS011;38621;52.830;6.914;2023-06-14T02:29:08;3.60;;;1.73;;
52724;SDS011;38621;52.830;6.914;2023-06-14T02:31:36;3.63;;;1.50;;
52724;SDS011;38621;52.830;6.914;2023-06-14T02:34:02;2.85;;;1.50;;
52724;SDS011;38621;52.830;6.914;2023-06-14T02:36:28;3.13;;;1.80;;
52724;SDS011;38621;52.830;6.914;2023-06-14T02:38:55;3.42;;;1.58;;
52724;SDS011;38621;52.830;6.914;2023-06-14T02:41:25;3.15;;;1.50;;
52724;SDS011;38621;52.830;6.914;2023-06-14T02:43:52;6.05;;;1.70;;
52724;SDS011;38621;52.830;6.914;2023-06-14T02:46:18;5.40;;;1.70;;
52724;SDS011;38621;52.830;6.914;2023-06-14T02:48:44;3.33;;;1.42;;
52724;SDS011;38621;52.830;6.914;2023-06-14T02:51:10;3.45;;;1.45;;
52724;SDS011;38621;52.830;6.914;2023-06-14T02:53:35;3.25;;;1.92;;
52724;SDS011;38621;52.830;6.914;2023-06-14T02:56:02;2.38;;;1.35;;
52724;SDS011;38621;52.830;6.914;2023-06-14T02:58:29;3.05;;;1.50;;
52724;SDS011;38621;52.830;6.914;2023-06-14T03:00:55;3.00;;;1.42;;
52724;SDS011;38621;52.830;6.914;2023-06-14T03:03:21;3.13;;;1.70;;
52724;SDS011;38621;52.830;6.914;2023-06-14T03:05:49;4.05;;;2.03;;
52724;SDS011;38621;52.830;6.914;2023-06-14T03:08:16;2.83;;;1.63;;
52724;SDS011;38621;52.830;6.914;2023-06-14T03:10:44;3.40;;;1.63;;
52724;SDS011;38621;52.830;6.914;2023-06-14T03:13:13;6.00;;;1.60;;
52724;SDS011;38621;52.830;6.914;2023-06-14T03:15:41;4.20;;;1.63;;
52724;SDS011;38621;52.830;6.914;2023-06-14T03:18:10;3.30;;;1.55;;
52724;SDS011;38621;52.830;6.914;2023-06-14T03:20:37;4.13;;;1.75;;
52724;SDS011;38621;52.830;6.914;2023-06-14T03:23:04;4.22;;;1.83;;
52724;SDS011;38621;52.830;6.914;2023-06-14T03:25:30;2.78;;;1.80;;
52724;SDS011;38621;52.830;6.914;2023-06-14T03:28:03;2.30;;;1.50;;
52724;SDS011;38621;52.830;6.914;2023-06-14T03:30:30;2.85;;;1.52;;
52724;SDS011;38621;52.830;6.914;2023-06-14T03:32:56;2.80;;;1.70;;
52724;SDS011;38621;52.830;6.914;2023-06-14T03:35:22;3.40;;;1.70;;
52724;SDS011;38621;52.830;6.914;2023-06-14T03:37:48;2.83;;;1.50;;
52724;SDS011;38621;52.830;6.914;2023-06-14T03:40:15;2.63;;;1.52;;
52724;SDS011;38621;52.830;6.914;2023-06-14T03:42:43;3.20;;;1.70;;
52724;SDS011;38621;52.830;6.914;2023-06-14T03:45:09;3.92;;;1.98;;
52724;SDS011;38621;52.830;6.914;2023-06-14T03:47:35;2.85;;;1.85;;
52724;SDS011;38621;52.830;6.914;2023-06-14T03:50:04;6.10;;;1.70;;
52724;SDS011;38621;52.830;6.914;2023-06-14T03:52:30;3.88;;;2.05;;
52724;SDS011;38621;52.830;6.914;2023-06-14T03:54:57;4.03;;;1.70;;
52724;SDS011;38621;52.830;6.914;2023-06-14T03:57:25;6.07;;;1.70;;
52724;SDS011;38621;52.830;6.914;2023-06-14T03:59:51;4.60;;;2.05;;
52724;SDS011;38621;52.830;6.914;2023-06-14T04:02:17;4.68;;;1.92;;
52724;SDS011;38621;52.830;6.914;2023-06-14T04:04:43;5.10;;;2.00;;
52724;SDS011;38621;52.830;6.914;2023-06-14T04:07:13;3.15;;;1.67;;
52724;SDS011;38621;52.830;6.914;2023-06-14T04:09:44;3.20;;;1.92;;
52724;SDS011;38621;52.830;6.914;2023-06-14T04:12:10;2.70;;;1.70;;
52724;SDS011;38621;52.830;6.914;2023-06-14T04:14:39;3.47;;;2.10;;
52724;SDS011;38621;52.830;6.914;2023-06-14T04:17:05;4.55;;;2.30;;
52724;SDS011;38621;52.830;6.914;2023-06-14T04:19:32;4.43;;;1.90;;
52724;SDS011;38621;52.830;6.914;2023-06-14T04:21:58;3.42;;;2.15;;
52724;SDS011;38621;52.830;6.914;2023-06-14T04:24:26;2.55;;;1.70;;
52724;SDS011;38621;52.830;6.914;2023-06-14T04:26:57;3.88;;;1.90;;
52724;SDS011;38621;52.830;6.914;2023-06-14T04:29:28;4.00;;;1.90;;
52724;SDS011;38621;52.830;6.914;2023-06-14T04:31:54;3.50;;;1.90;;
52724;SDS011;38621;52.830;6.914;2023-06-14T04:34:25;3.13;;;1.92;;
52724;SDS011;38621;52.830;6.914;2023-06-14T04:36:55;3.50;;;1.92;;
52724;SDS011;38621;52.830;6.914;2023-06-14T04:39:21;3.83;;;1.98;;
52724;SDS011;38621;52.830;6.914;2023-06-14T04:41:48;4.10;;;2.13;;
52724;SDS011;38621;52.830;6.914;2023-06-14T04:44:17;4.43;;;2.30;;
52724;SDS011;38621;52.830;6.914;2023-06-14T04:46:44;4.35;;;2.28;;
52724;SDS011;38621;52.830;6.914;2023-06-14T04:49:12;3.65;;;2.00;;
52724;SDS011;38621;52.830;6.914;2023-06-14T04:51:39;3.08;;;1.90;;
52724;SDS011;38621;52.830;6.914;2023-06-14T04:54:06;3.60;;;2.15;;
52724;SDS011;38621;52.830;6.914;2023-06-14T04:56:35;4.38;;;1.98;;
52724;SDS011;38621;52.830;6.914;2023-06-14T04:59:02;2.80;;;1.85;;
52724;SDS011;38621;52.830;6.914;2023-06-14T05:01:31;4.47;;;1.98;;
52724;SDS011;38621;52.830;6.914;2023-06-14T05:03:58;3.70;;;2.10;;
52724;SDS011;38621;52.830;6.914;2023-06-14T05:06:24;2.90;;;1.90;;
52724;SDS011;38621;52.830;6.914;2023-06-14T05:08:52;4.30;;;2.00;;
52724;SDS011;38621;52.830;6.914;2023-06-14T05:11:19;3.47;;;2.08;;
52724;SDS011;38621;52.830;6.914;2023-06-14T05:13:44;3.33;;;2.10;;
52724;SDS011;38621;52.830;6.914;2023-06-14T05:16:11;3.83;;;1.90;;
52724;SDS011;38621;52.830;6.914;2023-06-14T05:18:37;3.38;;;2.30;;
52724;SDS011;38621;52.830;6.914;2023-06-14T05:21:05;3.28;;;2.00;;
52724;SDS011;38621;52.830;6.914;2023-06-14T05:23:31;3.38;;;2.22;;
52724;SDS011;38621;52.830;6.914;2023-06-14T05:25:57;3.78;;;2.10;;
52724;SDS011;38621;52.830;6.914;2023-06-14T05:28:23;4.68;;;2.10;;
52724;SDS011;38621;52.830;6.914;2023-06-14T05:30:49;2.78;;;1.80;;
52724;SDS011;38621;52.830;6.914;2023-06-14T05:33:15;3.20;;;1.92;;
52724;SDS011;38621;52.830;6.914;2023-06-14T05:35:40;3.85;;;1.98;;
52724;SDS011;38621;52.830;6.914;2023-06-14T05:38:06;3.03;;;1.88;;
52724;SDS011;38621;52.830;6.914;2023-06-14T05:40:32;3.13;;;1.98;;
52724;SDS011;38621;52.830;6.914;2023-06-14T05:42:58;3.63;;;2.10;;
52724;SDS011;38621;52.830;6.914;2023-06-14T05:45:24;3.50;;;2.10;;
52724;SDS011;38621;52.830;6.914;2023-06-14T05:47:50;4.72;;;2.20;;
52724;SDS011;38621;52.830;6.914;2023-06-14T05:50:17;4.13;;;2.03;;
52724;SDS011;38621;52.830;6.914;2023-06-14T05:52:43;3.22;;;2.05;;
52724;SDS011;38621;52.830;6.914;2023-06-14T05:55:08;4.15;;;1.90;;
52724;SDS011;38621;52.830;6.914;2023-06-14T05:57:37;3.30;;;1.98;;
52724;SDS011;38621;52.830;6.914;2023-06-14T06:00:02;5.20;;;2.00;;
52724;SDS011;38621;52.830;6.914;2023-06-14T06:02:35;3.10;;;1.83;;
52724;SDS011;38621;52.830;6.914;2023-06-14T06:05:01;2.80;;;1.90;;
52724;SDS011;38621;52.830;6.914;2023-06-14T06:07:27;4.30;;;1.85;;
52724;SDS011;38621;52.830;6.914;2023-06-14T06:09:53;3.88;;;2.22;;
52724;SDS011;38621;52.830;6.914;2023-06-14T06:12:18;3.28;;;2.03;;
52724;SDS011;38621;52.830;6.914;2023-06-14T06:14:44;4.38;;;1.90;;
52724;SDS011;38621;52.830;6.914;2023-06-14T06:17:10;2.92;;;1.92;;
52724;SDS011;38621;52.830;6.914;2023-06-14T06:19:35;2.20;;;1.52;;
52724;SDS011;38621;52.830;6.914;2023-06-14T06:22:01;5.10;;;2.00;;
52724;SDS011;38621;52.830;6.914;2023-06-14T06:24:29;2.63;;;1.85;;
52724;SDS011;38621;52.830;6.914;2023-06-14T06:26:55;4.35;;;2.22;;
52724;SDS011;38621;52.830;6.914;2023-06-14T06:29:21;2.45;;;1.80;;
52724;SDS011;38621;52.830;6.914;2023-06-14T06:31:46;5.15;;;2.15;;
52724;SDS011;38621;52.830;6.914;2023-06-14T06:34:12;3.60;;;1.92;;
52724;SDS011;38621;52.830;6.914;2023-06-14T06:36:38;3.85;;;1.80;;
52724;SDS011;38621;52.830;6.914;2023-06-14T06:39:03;4.03;;;1.92;;
52724;SDS011;38621;52.830;6.914;2023-06-14T06:41:35;4.00;;;2.22;;
52724;SDS011;38621;52.830;6.914;2023-06-14T06:44:03;4.10;;;2.10;;
52724;SDS011;38621;52.830;6.914;2023-06-14T06:46:28;4.90;;;1.88;;
52724;SDS011;38621;52.830;6.914;2023-06-14T06:48:54;2.75;;;1.73;;
52724;SDS011;38621;52.830;6.914;2023-06-14T06:51:20;3.88;;;1.85;;
52724;SDS011;38621;52.830;6.914;2023-06-14T06:53:51;3.53;;;1.75;;
52724;SDS011;38621;52.830;6.914;2023-06-14T06:56:18;3.50;;;1.65;;
52724;SDS011;38621;52.830;6.914;2023-06-14T06:58:44;2.90;;;1.77;;
52724;SDS011;38621;52.830;6.914;2023-06-14T07:01:10;3.30;;;1.80;;
52724;SDS011;38621;52.830;6.914;2023-06-14T07:03:36;2.88;;;1.75;;
52724;SDS011;38621;52.830;6.914;2023-06-14T07:06:02;3.03;;;1.60;;
52724;SDS011;38621;52.830;6.914;2023-06-14T07:08:28;5.03;;;1.50;;
52724;SDS011;38621;52.830;6.914;2023-06-14T07:10:54;2.92;;;1.80;;
52724;SDS011;38621;52.830;6.914;2023-06-14T07:13:20;3.95;;;1.70;;
52724;SDS011;38621;52.830;6.914;2023-06-14T07:15:46;2.45;;;1.50;;
52724;SDS011;38621;52.830;6.914;2023-06-14T07:18:12;3.90;;;1.55;;
52724;SDS011;38621;52.830;6.914;2023-06-14T07:20:38;4.85;;;1.40;;
52724;SDS011;38621;52.830;6.914;2023-06-14T07:23:04;3.40;;;1.50;;
52724;SDS011;38621;52.830;6.914;2023-06-14T07:25:30;2.58;;;1.50;;
52724;SDS011;38621;52.830;6.914;2023-06-14T07:27:56;5.32;;;1.92;;
52724;SDS011;38621;52.830;6.914;2023-06-14T07:30:22;3.38;;;1.77;;
52724;SDS011;38621;52.830;6.914;2023-06-14T07:32:51;5.43;;;1.63;;
52724;SDS011;38621;52.830;6.914;2023-06-14T07:35:20;4.85;;;1.70;;
52724;SDS011;38621;52.830;6.914;2023-06-14T07:37:45;4.10;;;1.70;;
52724;SDS011;38621;52.830;6.914;2023-06-14T07:40:12;3.47;;;1.30;;
52724;SDS011;38621;52.830;6.914;2023-06-14T07:42:38;2.00;;;1.25;;
52724;SDS011;38621;52.830;6.914;2023-06-14T07:45:05;3.08;;;1.55;;
52724;SDS011;38621;52.830;6.914;2023-06-14T07:47:31;3.58;;;1.33;;
52724;SDS011;38621;52.830;6.914;2023-06-14T07:49:57;4.00;;;1.70;;
52724;SDS011;38621;52.830;6.914;2023-06-14T07:52:23;3.78;;;1.30;;
52724;SDS011;38621;52.830;6.914;2023-06-14T07:54:50;2.22;;;1.30;;
52724;SDS011;38621;52.830;6.914;2023-06-14T07:57:15;2.42;;;1.30;;
52724;SDS011;38621;52.830;6.914;2023-06-14T07:59:41;2.00;;;1.13;;
52724;SDS011;38621;52.830;6.914;2023-06-14T08:02:07;2.03;;;1.23;;
52724;SDS011;38621;52.830;6.914;2023-06-14T08:04:32;3.45;;;1.25;;
52724;SDS011;38621;52.830;6.914;2023-06-14T08:06:59;2.20;;;1.30;;
52724;SDS011;38621;52.830;6.914;2023-06-14T08:09:25;3.30;;;1.40;;
52724;SDS011;38621;52.830;6.914;2023-06-14T08:11:53;2.85;;;1.23;;
52724;SDS011;38621;52.830;6.914;2023-06-14T08:14:18;2.70;;;1.10;;
52724;SDS011;38621;52.830;6.914;2023-06-14T08:16:44;2.70;;;1.42;;
52724;SDS011;38621;52.830;6.914;2023-06-14T08:19:10;2.92;;;1.33;;
52724;SDS011;38621;52.830;6.914;2023-06-14T08:21:35;2.58;;;1.50;;
52724;SDS011;38621;52.830;6.914;2023-06-14T08:24:01;4.30;;;1.35;;
52724;SDS011;38621;52.830;6.914;2023-06-14T08:26:27;3.15;;;1.20;;
52724;SDS011;38621;52.830;6.914;2023-06-14T08:28:57;3.05;;;1.23;;
52724;SDS011;38621;52.830;6.914;2023-06-14T08:31:23;2.45;;;1.20;;
52724;SDS011;38621;52.830;6.914;2023-06-14T08:33:50;2.13;;;1.20;;
52724;SDS011;38621;52.830;6.914;2023-06-14T08:36:16;1.88;;;1.05;;
52724;SDS011;38621;52.830;6.914;2023-06-14T08:38:42;2.05;;;1.13;;
52724;SDS011;38621;52.830;6.914;2023-06-14T08:41:09;1.77;;;1.00;;
52724;SDS011;38621;52.830;6.914;2023-06-14T08:43:38;2.50;;;1.00;;
52724;SDS011;38621;52.830;6.914;2023-06-14T08:46:04;1.70;;;1.10;;
52724;SDS011;38621;52.830;6.914;2023-06-14T08:48:33;1.83;;;0.90;;
52724;SDS011;38621;52.830;6.914;2023-06-14T08:51:00;1.80;;;0.90;;
52724;SDS011;38621;52.830;6.914;2023-06-14T08:53:32;1.70;;;1.10;;
52724;SDS011;38621;52.830;6.914;2023-06-14T08:56:02;2.88;;;1.05;;
52724;SDS011;38621;52.830;6.914;2023-06-14T08:58:33;2.03;;;1.20;;
52724;SDS011;38621;52.830;6.914;2023-06-14T09:00:59;2.13;;;1.10;;
52724;SDS011;38621;52.830;6.914;2023-06-14T09:03:26;3.50;;;1.05;;
52724;SDS011;38621;52.830;6.914;2023-06-14T09:05:58;2.33;;;0.98;;
52724;SDS011;38621;52.830;6.914;2023-06-14T09:08:27;1.67;;;1.05;;
52724;SDS011;38621;52.830;6.914;2023-06-14T09:10:56;1.90;;;1.15;;
52724;SDS011;38621;52.830;6.914;2023-06-14T09:13:22;2.22;;;1.20;;
52724;SDS011;38621;52.830;6.914;2023-06-14T09:15:48;2.17;;;1.30;;
52724;SDS011;38621;52.830;6.914;2023-06-14T09:18:15;2.03;;;1.00;;
52724;SDS011;38621;52.830;6.914;2023-06-14T09:20:40;2.67;;;1.17;;
52724;SDS011;38621;52.830;6.914;2023-06-14T09:23:06;1.75;;;1.13;;
52724;SDS011;38621;52.830;6.914;2023-06-14T09:25:36;2.28;;;1.20;;
52724;SDS011;38621;52.830;6.914;2023-06-14T09:28:08;2.13;;;1.10;;
52724;SDS011;38621;52.830;6.914;2023-06-14T09:30:33;2.35;;;1.10;;
52724;SDS011;38621;52.830;6.914;2023-06-14T09:33:00;2.33;;;1.00;;
52724;SDS011;38621;52.830;6.914;2023-06-14T09:35:26;2.72;;;1.17;;
52724;SDS011;38621;52.830;6.914;2023-06-14T09:37:54;1.95;;;1.23;;
52724;SDS011;38621;52.830;6.914;2023-06-14T09:40:20;3.50;;;1.55;;
52724;SDS011;38621;52.830;6.914;2023-06-14T09:42:47;1.95;;;1.00;;
52724;SDS011;38621;52.830;6.914;2023-06-14T09:45:13;1.98;;;1.02;;
52724;SDS011;38621;52.830;6.914;2023-06-14T09:47:40;1.73;;;0.98;;
52724;SDS011;38621;52.830;6.914;2023-06-14T09:50:07;2.00;;;0.80;;
52724;SDS011;38621;52.830;6.914;2023-06-14T09:52:33;2.60;;;1.00;;
52724;SDS011;38621;52.830;6.914;2023-06-14T09:54:59;2.30;;;1.05;;
52724;SDS011;38621;52.830;6.914;2023-06-14T09:57:25;2.10;;;1.10;;
52724;SDS011;38621;52.830;6.914;2023-06-14T09:59:53;2.10;;;0.90;;
52724;SDS011;38621;52.830;6.914;2023-06-14T10:02:27;1.85;;;1.05;;
52724;SDS011;38621;52.830;6.914;2023-06-14T10:05:02;2.30;;;0.90;;
52724;SDS011;38621;52.830;6.914;2023-06-14T10:07:44;1.77;;;1.17;;
52724;SDS011;38621;52.830;6.914;2023-06-14T10:10:16;1.85;;;1.00;;
52724;SDS011;38621;52.830;6.914;2023-06-14T10:12:42;1.95;;;1.10;;
52724;SDS011;38621;52.830;6.914;2023-06-14T10:15:13;1.92;;;1.00;;
52724;SDS011;38621;52.830;6.914;2023-06-14T10:17:47;2.35;;;1.10;;
52724;SDS011;38621;52.830;6.914;2023-06-14T10:22:50;1.55;;;0.93;;
52724;SDS011;38621;52.830;6.914;2023-06-14T10:25:30;1.90;;;1.10;;
52724;SDS011;38621;52.830;6.914;2023-06-14T10:30:37;3.85;;;1.10;;
52724;SDS011;38621;52.830;6.914;2023-06-14T10:33:03;2.03;;;1.00;;
52724;SDS011;38621;52.830;6.914;2023-06-14T10:35:33;3.17;;;1.30;;
52724;SDS011;38621;52.830;6.914;2023-06-14T10:38:09;1.95;;;1.10;;
52724;SDS011;38621;52.830;6.914;2023-06-14T10:40:36;1.75;;;0.90;;
52724;SDS011;38621;52.830;6.914;2023-06-14T10:43:22;2.58;;;1.00;;
52724;SDS011;38621;52.830;6.914;2023-06-14T10:48:40;5.75;;;0.90;;
52724;SDS011;38621;52.830;6.914;2023-06-14T10:51:14;1.83;;;1.00;;
52724;SDS011;38621;52.830;6.914;2023-06-14T10:53:45;2.42;;;1.10;;
52724;SDS011;38621;52.830;6.914;2023-06-14T10:56:27;3.22;;;1.38;;
52724;SDS011;38621;52.830;6.914;2023-06-14T10:58:57;1.67;;;1.10;;
52724;SDS011;38621;52.830;6.914;2023-06-14T11:01:29;2.72;;;0.98;;
52724;SDS011;38621;52.830;6.914;2023-06-14T11:04:10;2.47;;;1.00;;
52724;SDS011;38621;52.830;6.914;2023-06-14T11:06:46;3.42;;;1.30;;
52724;SDS011;38621;52.830;6.914;2023-06-14T11:12:09;2.88;;;1.30;;
52724;SDS011;38621;52.830;6.914;2023-06-14T11:14:38;2.00;;;0.98;;
52724;SDS011;38621;52.830;6.914;2023-06-14T11:17:04;2.75;;;0.90;;
52724;SDS011;38621;52.830;6.914;2023-06-14T11:19:30;3.72;;;1.00;;
52724;SDS011;38621;52.830;6.914;2023-06-14T11:21:56;3.30;;;0.90;;
52724;SDS011;38621;52.830;6.914;2023-06-14T11:24:23;2.05;;;1.00;;
52724;SDS011;38621;52.830;6.914;2023-06-14T11:26:49;2.05;;;0.70;;
52724;SDS011;38621;52.830;6.914;2023-06-14T11:29:16;1.77;;;0.80;;
52724;SDS011;38621;52.830;6.914;2023-06-14T11:31:45;2.08;;;1.00;;
52724;SDS011;38621;52.830;6.914;2023-06-14T11:34:11;1.85;;;1.02;;
52724;SDS011;38621;52.830;6.914;2023-06-14T11:36:38;1.75;;;0.90;;
52724;SDS011;38621;52.830;6.914;2023-06-14T11:39:04;1.83;;;0.90;;
52724;SDS011;38621;52.830;6.914;2023-06-14T11:41:43;3.30;;;0.90;;
52724;SDS011;38621;52.830;6.914;2023-06-14T11:44:10;2.08;;;0.90;;
52724;SDS011;38621;52.830;6.914;2023-06-14T11:46:36;1.48;;;0.90;;
52724;SDS011;38621;52.830;6.914;2023-06-14T11:49:03;1.55;;;1.10;;
52724;SDS011;38621;52.830;6.914;2023-06-14T11:51:32;3.05;;;0.90;;
52724;SDS011;38621;52.830;6.914;2023-06-14T11:53:59;2.17;;;1.02;;
52724;SDS011;38621;52.830;6.914;2023-06-14T11:56:27;1.58;;;0.95;;
52724;SDS011;38621;52.830;6.914;2023-06-14T11:58:54;2.13;;;0.90;;
52724;SDS011;38621;52.830;6.914;2023-06-14T12:01:22;2.00;;;0.93;;
52724;SDS011;38621;52.830;6.914;2023-06-14T12:03:48;4.43;;;1.02;;
52724;SDS011;38621;52.830;6.914;2023-06-14T12:06:15;2.50;;;0.98;;
52724;SDS011;38621;52.830;6.914;2023-06-14T12:08:43;1.92;;;1.08;;
52724;SDS011;38621;52.830;6.914;2023-06-14T12:11:11;1.80;;;0.68;;
52724;SDS011;38621;52.830;6.914;2023-06-14T12:13:41;2.13;;;0.75;;
52724;SDS011;38621;52.830;6.914;2023-06-14T12:16:08;3.45;;;1.15;;
52724;SDS011;38621;52.830;6.914;2023-06-14T12:18:35;4.38;;;0.90;;
52724;SDS011;38621;52.830;6.914;2023-06-14T12:21:05;2.58;;;1.10;;
52724;SDS011;38621;52.830;6.914;2023-06-14T12:23:45;2.63;;;1.10;;
52724;SDS011;38621;52.830;6.914;2023-06-14T12:26:13;1.80;;;1.00;;
52724;SDS011;38621;52.830;6.914;2023-06-14T12:28:43;1.63;;;0.98;;
52724;SDS011;38621;52.830;6.914;2023-06-14T12:31:10;1.80;;;1.10;;
52724;SDS011;38621;52.830;6.914;2023-06-14T12:33:40;1.75;;;1.00;;
52724;SDS011;38621;52.830;6.914;2023-06-14T12:36:07;1.58;;;1.00;;
52724;SDS011;38621;52.830;6.914;2023-06-14T12:38:34;2.00;;;1.20;;
52724;SDS011;38621;52.830;6.914;2023-06-14T12:40:59;1.65;;;0.95;;
52724;SDS011;38621;52.830;6.914;2023-06-14T12:43:26;2.22;;;1.00;;
52724;SDS011;38621;52.830;6.914;2023-06-14T12:45:51;2.17;;;1.17;;
52724;SDS011;38621;52.830;6.914;2023-06-14T12:48:17;1.67;;;1.00;;
52724;SDS011;38621;52.830;6.914;2023-06-14T12:50:43;2.20;;;1.00;;
52724;SDS011;38621;52.830;6.914;2023-06-14T12:53:09;1.52;;;1.05;;
52724;SDS011;38621;52.830;6.914;2023-06-14T12:55:34;2.15;;;1.10;;
52724;SDS011;38621;52.830;6.914;2023-06-14T12:58:00;1.38;;;0.88;;
52724;SDS011;38621;52.830;6.914;2023-06-14T13:00:26;1.88;;;1.00;;
52724;SDS011;38621;52.830;6.914;2023-06-14T13:02:52;2.05;;;1.10;;
52724;SDS011;38621;52.830;6.914;2023-06-14T13:05:18;2.35;;;0.85;;
52724;SDS011;38621;52.830;6.914;2023-06-14T13:07:44;1.80;;;1.00;;
52724;SDS011;38621;52.830;6.914;2023-06-14T13:10:10;3.08;;;1.00;;
52724;SDS011;38621;52.830;6.914;2023-06-14T13:12:36;1.35;;;0.90;;
52724;SDS011;38621;52.830;6.914;2023-06-14T13:15:02;2.90;;;1.00;;
52724;SDS011;38621;52.830;6.914;2023-06-14T13:17:27;1.65;;;1.00;;
52724;SDS011;38621;52.830;6.914;2023-06-14T13:19:53;1.98;;;0.73;;
52724;SDS011;38621;52.830;6.914;2023-06-14T13:22:19;3.08;;;0.90;;
52724;SDS011;38621;52.830;6.914;2023-06-14T13:24:45;1.70;;;0.98;;
52724;SDS011;38621;52.830;6.914;2023-06-14T13:27:11;3.88;;;1.40;;
52724;SDS011;38621;52.830;6.914;2023-06-14T13:29:39;1.83;;;1.00;;
52724;SDS011;38621;52.830;6.914;2023-06-14T13:32:05;1.70;;;1.15;;
52724;SDS011;38621;52.830;6.914;2023-06-14T13:34:31;1.70;;;1.10;;
52724;SDS011;38621;52.830;6.914;2023-06-14T13:36:57;2.90;;;0.95;;
52724;SDS011;38621;52.830;6.914;2023-06-14T13:39:24;2.10;;;1.10;;
52724;SDS011;38621;52.830;6.914;2023-06-14T13:41:51;1.63;;;1.00;;
52724;SDS011;38621;52.830;6.914;2023-06-14T13:44:16;2.03;;;1.02;;
52724;SDS011;38621;52.830;6.914;2023-06-14T13:46:44;1.60;;;1.00;;
52724;SDS011;38621;52.830;6.914;2023-06-14T13:49:10;2.28;;;1.02;;
52724;SDS011;38621;52.830;6.914;2023-06-14T13:51:37;1.50;;;0.90;;
52724;SDS011;38621;52.830;6.914;2023-06-14T13:54:02;1.98;;;1.10;;
52724;SDS011;38621;52.830;6.914;2023-06-14T13:56:28;1.85;;;1.02;;
52724;SDS011;38621;52.830;6.914;2023-06-14T13:58:55;1.88;;;1.02;;
52724;SDS011;38621;52.830;6.914;2023-06-14T14:01:21;1.55;;;1.00;;
52724;SDS011;38621;52.830;6.914;2023-06-14T14:03:47;2.85;;;1.00;;
52724;SDS011;38621;52.830;6.914;2023-06-14T14:06:14;2.97;;;1.00;;
52724;SDS011;38621;52.830;6.914;2023-06-14T14:08:40;1.73;;;1.05;;
52724;SDS011;38621;52.830;6.914;2023-06-14T14:11:07;1.70;;;1.08;;
52724;SDS011;38621;52.830;6.914;2023-06-14T14:13:34;1.70;;;1.05;;
52724;SDS011;38621;52.830;6.914;2023-06-14T14:16:01;2.80;;;1.23;;
52724;SDS011;38621;52.830;6.914;2023-06-14T14:18:28;1.73;;;1.00;;
52724;SDS011;38621;52.830;6.914;2023-06-14T14:20:54;2.28;;;1.25;;
52724;SDS011;38621;52.830;6.914;2023-06-14T14:23:20;2.15;;;1.02;;
52724;SDS011;38621;52.830;6.914;2023-06-14T14:25:46;2.03;;;1.10;;
52724;SDS011;38621;52.830;6.914;2023-06-14T14:28:13;2.20;;;1.13;;
52724;SDS011;38621;52.830;6.914;2023-06-14T14:30:41;2.10;;;1.30;;
52724;SDS011;38621;52.830;6.914;2023-06-14T14:33:07;1.90;;;1.00;;
52724;SDS011;38621;52.830;6.914;2023-06-14T14:35:33;2.47;;;1.33;;
52724;SDS011;38621;52.830;6.914;2023-06-14T14:37:59;2.42;;;1.30;;
52724;SDS011;38621;52.830;6.914;2023-06-14T14:40:25;2.28;;;1.30;;
52724;SDS011;38621;52.830;6.914;2023-06-14T14:42:51;2.00;;;1.10;;
52724;SDS011;38621;52.830;6.914;2023-06-14T14:45:17;2.63;;;1.08;;
52724;SDS011;38621;52.830;6.914;2023-06-14T14:47:43;2.65;;;1.30;;
52724;SDS011;38621;52.830;6.914;2023-06-14T14:50:08;2.13;;;1.10;;
52724;SDS011;38621;52.830;6.914;2023-06-14T14:52:35;3.55;;;1.20;;
52724;SDS011;38621;52.830;6.914;2023-06-14T14:55:01;2.13;;;1.20;;
52724;SDS011;38621;52.830;6.914;2023-06-14T14:57:27;2.13;;;1.23;;
52724;SDS011;38621;52.830;6.914;2023-06-14T14:59:53;2.03;;;1.20;;
52724;SDS011;38621;52.830;6.914;2023-06-14T15:02:19;1.80;;;1.20;;